This is the latest recevied weather packets stored in our database for station/object KK4WXG. If no packets are shown the sender has not sent any weather packets the latest 10 day(s).
| Time | Temp. | Humidity | Pressure | Rain* | Wind** | Luminosity | Snow |
|---|---|---|---|---|---|---|---|
| 1778169960 | 17.22° C | 38% | 1011.1 hPa | 0 mm | - | 975 W/m² | - |
| 1778169656 | 16.11° C | 37% | 1011.2 hPa | 0 mm | - | 953 W/m² | - |
| 1778169352 | 16.67° C | 41% | 1011.2 hPa | 0 mm | - | 941 W/m² | - |
| 1778169049 | 17.22° C | 40% | 1011.1 hPa | 0 mm | - | 998 W/m² | - |
| 1778168746 | 17.22° C | 43% | 1011.1 hPa | 0 mm | - | 1048 W/m² | - |
| 1778168443 | 16.67° C | 40% | 1011.1 hPa | 0 mm | - | 1006 W/m² | - |
| 1778168140 | 16.11° C | 40% | 1011.5 hPa | 0 mm | - | 953 W/m² | - |
| 1778167836 | 16.67° C | 46% | 1011.3 hPa | 0 mm | - | 858 W/m² | - |
| 1778167532 | 16.67° C | 43% | 1011.6 hPa | 0 mm | - | 921 W/m² | - |
| 1778167229 | 16.67° C | 44% | 1011.5 hPa | 0 mm | - | 953 W/m² | - |
| 1778166925 | 16.67° C | 47% | 1011.5 hPa | 0 mm | - | 1027 W/m² | - |
| 1778166622 | 16.11° C | 43% | 1011.6 hPa | 0 mm | - | 1033 W/m² | - |
| 1778166319 | 15.56° C | 46% | 1011.8 hPa | 0 mm | - | 1022 W/m² | - |
| 1778166015 | 15° C | 42% | 1011.9 hPa | 0 mm | - | 436 W/m² | - |
| 1778165710 | 15.56° C | 47% | 1012.1 hPa | 0 mm | - | 417 W/m² | - |
| 1778165408 | 15° C | 44% | 1012.2 hPa | 0 mm | - | 449 W/m² | - |
| 1778165104 | 13.89° C | 45% | 1012.3 hPa | 0 mm | - | 417 W/m² | - |
| 1778164801 | 13.89° C | 45% | 1012.3 hPa | 0 mm | - | 309 W/m² | - |
| 1778164499 | 13.89° C | 45% | 1012.2 hPa | 0 mm | - | 339 W/m² | - |
| 1778164196 | 14.44° C | 47% | 1012.3 hPa | 0 mm | - | 460 W/m² | - |
| 1778163891 | 14.44° C | 44% | 1012.6 hPa | 0 mm | - | 266 W/m² | - |
| 1778163589 | 13.89° C | 44% | 1012.6 hPa | 0 mm | - | 318 W/m² | - |
| 1778163285 | 13.89° C | 50% | 1012.8 hPa | 0 mm | - | 292 W/m² | - |
| 1778162982 | 13.33° C | 45% | 1012.7 hPa | 0 mm | - | 265 W/m² | - |
| 1778162678 | 13.33° C | 48% | 1012.7 hPa | 0 mm | - | 329 W/m² | - |
* Rain latest hour (hover to see other rain measurements)
** Current wind speed in m/s (hover to see current wind gust speed)